Time;durP1;ratioP1;P1;durP2;ratioP2;P2;SDS_P1;SDS_P2;PMS_P1;PMS_P2;Temp;Humidity;BMP_temperature;BMP_pressure;BME280_temperature;BME280_humidity;BME280_pressure;Samples;Min_cycle;Max_cycle;Signal;HPM_P1;HPM_P2
2022/01/11 00:00:29;;;;;;;13.70;9.27;;;;;;;0.45;100.00;98096.88;5051260;28;20199;-44
2022/01/11 00:02:57;;;;;;;12.00;9.80;;;;;;;0.53;100.00;98102.44;5056568;28;20213;-47
2022/01/11 00:05:30;;;;;;;13.40;10.23;;;;;;;0.45;100.00;98110.72;5058232;28;20247;-49
2022/01/11 00:07:59;;;;;;;12.03;9.20;;;;;;;0.23;100.00;98116.47;5053923;28;20199;-46
2022/01/11 00:10:28;;;;;;;12.77;9.40;;;;;;;0.19;100.00;98117.59;5056848;28;20215;-45
2022/01/11 00:12:56;;;;;;;13.30;9.50;;;;;;;0.24;100.00;98120.75;5054510;28;20203;-47
2022/01/11 00:15:25;;;;;;;12.73;8.97;;;;;;;0.36;100.00;98125.19;5052031;28;20224;-45
2022/01/11 00:17:54;;;;;;;11.70;9.00;;;;;;;0.45;100.00;98128.16;5055910;28;20210;-43
2022/01/11 00:20:22;;;;;;;11.50;8.93;;;;;;;0.29;100.00;98123.88;5056300;28;20344;-47
2022/01/11 00:24:27;;;;;;;14.63;10.10;;;;;;;0.24;100.00;98126.81;5052326;28;20246;-46
2022/01/11 00:25:46;;;;;;;12.00;9.07;;;;;;;0.39;100.00;98131.97;5057657;28;20218;-46
2022/01/11 00:28:16;;;;;;;13.33;10.00;;;;;;;0.18;100.00;98129.75;5055411;28;20338;-44
2022/01/11 00:30:50;;;;;;;11.73;9.60;;;;;;;0.23;100.00;98132.94;5051264;28;20230;-45
2022/01/11 00:33:24;;;;;;;11.13;8.40;;;;;;;0.26;100.00;98132.75;5052477;28;20695;-46
2022/01/11 00:35:59;;;;;;;11.30;8.80;;;;;;;0.35;100.00;98136.53;5053077;28;20608;-45
2022/01/11 00:38:28;;;;;;;11.87;9.90;;;;;;;0.42;100.00;98139.59;5053398;28;20307;-44
2022/01/11 00:41:00;;;;;;;13.00;9.37;;;;;;;0.39;100.00;98139.81;5052839;28;20230;-45
2022/01/11 00:43:29;;;;;;;12.07;9.17;;;;;;;0.48;100.00;98151.44;5052497;28;20852;-47
2022/01/11 00:45:59;;;;;;;12.93;9.50;;;;;;;0.51;100.00;98148.63;5055239;28;20222;-48
2022/01/11 00:48:28;;;;;;;9.57;8.57;;;;;;;0.55;100.00;98147.50;5049750;28;20310;-44
2022/01/11 00:50:57;;;;;;;16.07;9.03;;;;;;;0.65;100.00;98152.97;5052462;28;20644;-49
2022/01/11 00:53:25;;;;;;;13.17;9.43;;;;;;;0.50;100.00;98144.34;5051900;28;20239;-44
2022/01/11 00:55:53;;;;;;;14.37;9.60;;;;;;;0.63;100.00;98152.25;5051016;28;20233;-44
2022/01/11 00:58:21;;;;;;;11.83;9.33;;;;;;;0.55;100.00;98153.53;5050234;28;20250;-45
2022/01/11 01:00:49;;;;;;;11.47;9.30;;;;;;;0.53;100.00;98151.97;5051863;28;20297;-45
2022/01/11 01:03:20;;;;;;;13.53;10.00;;;;;;;0.32;100.00;98151.56;5053377;28;20206;-48
2022/01/11 01:05:48;;;;;;;10.83;9.20;;;;;;;0.50;100.00;98155.59;5053961;28;20226;-45
2022/01/11 01:08:16;;;;;;;11.97;8.47;;;;;;;0.59;100.00;98153.38;5052365;28;20214;-45
2022/01/11 01:10:46;;;;;;;12.80;8.53;;;;;;;0.52;100.00;98151.13;5053663;28;20258;-45
2022/01/11 01:13:18;;;;;;;11.10;8.03;;;;;;;0.47;100.00;98155.78;5050808;28;20290;-48
2022/01/11 01:15:48;;;;;;;13.90;9.33;;;;;;;0.38;100.00;98154.63;5051608;28;20798;-46
2022/01/11 01:18:17;;;;;;;13.47;9.03;;;;;;;0.42;100.00;98163.06;5048329;28;20215;-46
2022/01/11 01:20:46;;;;;;;12.13;7.80;;;;;;;0.44;100.00;98166.41;5050678;28;20202;-47
2022/01/11 01:23:15;;;;;;;10.53;8.43;;;;;;;0.37;100.00;98168.56;5056400;28;20200;-44
2022/01/11 01:25:45;;;;;;;11.90;7.53;;;;;;;0.29;100.00;98168.22;5052572;28;20230;-47
2022/01/11 01:28:13;;;;;;;9.13;7.77;;;;;;;0.30;100.00;98174.28;5051344;28;20215;-47
2022/01/11 01:30:42;;;;;;;12.90;7.83;;;;;;;0.35;100.00;98172.22;5053722;28;20227;-46
2022/01/11 01:33:10;;;;;;;10.40;7.13;;;;;;;0.54;100.00;98166.69;5050924;28;20203;-45
2022/01/11 01:35:39;;;;;;;11.47;8.47;;;;;;;0.54;100.00;98172.72;5051685;28;20319;-45
2022/01/11 01:38:51;;;;;;;10.13;8.00;;;;;;;0.40;100.00;98175.38;5054127;28;20207;-47
2022/01/11 01:41:21;;;;;;;11.13;7.90;;;;;;;0.56;100.00;98176.06;5049313;28;20211;-44
2022/01/11 01:43:53;;;;;;;9.13;7.13;;;;;;;0.53;100.00;98175.44;5052944;28;20207;-45
2022/01/11 01:46:22;;;;;;;11.27;7.53;;;;;;;0.38;100.00;98178.09;5053165;28;20219;-44
2022/01/11 01:48:51;;;;;;;8.97;6.93;;;;;;;0.50;100.00;98178.25;5053530;28;20787;-44
2022/01/11 01:51:19;;;;;;;11.57;7.80;;;;;;;0.46;100.00;98181.97;5047755;28;20234;-47
2022/01/11 01:53:48;;;;;;;10.20;8.40;;;;;;;0.48;100.00;98180.94;5049501;28;20457;-45
2022/01/11 01:56:18;;;;;;;13.37;8.93;;;;;;;0.53;100.00;98175.44;5053005;28;20265;-44
2022/01/11 01:58:48;;;;;;;14.00;8.27;;;;;;;0.47;100.00;98176.66;5055705;28;20216;-44
2022/01/11 02:01:16;;;;;;;8.37;7.57;;;;;;;0.36;100.00;98173.88;5049245;28;20672;-46
2022/01/11 02:03:46;;;;;;;10.13;7.17;;;;;;;0.47;100.00;98181.88;5055604;28;20235;-44
2022/01/11 02:06:17;;;;;;;11.60;7.57;;;;;;;0.52;100.00;98182.41;5054490;28;20784;-44
2022/01/11 02:08:46;;;;;;;8.43;7.43;;;;;;;0.47;100.00;98181.88;5059659;28;21246;-46
2022/01/11 02:11:15;;;;;;;10.80;6.97;;;;;;;0.18;100.00;98183.69;5059489;28;20227;-45
2022/01/11 02:13:43;;;;;;;8.27;6.00;;;;;;;0.15;100.00;98182.09;5062172;28;20198;-44
2022/01/11 02:16:13;;;;;;;8.17;6.93;;;;;;;0.14;100.00;98183.03;5055547;28;20484;-47
2022/01/11 02:18:42;;;;;;;8.27;6.63;;;;;;;0.08;100.00;98189.47;5050771;28;20294;-48
2022/01/11 02:21:11;;;;;;;9.93;7.30;;;;;;;0.31;100.00;98189.81;5058091;28;20240;-47
2022/01/11 02:23:40;;;;;;;12.30;7.00;;;;;;;0.29;100.00;98186.47;5057006;28;20214;-46
2022/01/11 02:26:08;;;;;;;9.80;7.37;;;;;;;0.38;100.00;98191.13;5055365;28;20226;-45
2022/01/11 02:28:37;;;;;;;8.67;6.87;;;;;;;0.51;100.00;98192.97;5050195;28;20208;-47
2022/01/11 02:31:12;;;;;;;10.30;6.93;;;;;;;0.48;100.00;98188.75;5052962;28;20749;-45
2022/01/11 02:33:44;;;;;;;9.13;7.27;;;;;;;0.29;100.00;98199.50;5057454;28;20268;-47
2022/01/11 02:36:15;;;;;;;9.30;7.23;;;;;;;0.51;100.00;98190.34;5058038;28;20237;-50
2022/01/11 02:38:43;;;;;;;12.17;8.27;;;;;;;0.54;100.00;98192.78;5058529;28;20202;-48
2022/01/11 02:41:11;;;;;;;9.90;6.07;;;;;;;0.46;100.00;98189.81;5055533;28;20202;-46
2022/01/11 02:43:42;;;;;;;8.27;6.43;;;;;;;0.60;100.00;98195.00;5054828;28;20204;-47
2022/01/11 02:46:11;;;;;;;8.57;6.37;;;;;;;0.63;100.00;98191.38;5051882;28;20292;-45
2022/01/11 02:48:39;;;;;;;7.80;6.83;;;;;;;0.51;100.00;98192.97;5050586;28;20317;-51
2022/01/11 02:51:08;;;;;;;10.60;6.63;;;;;;;0.59;100.00;98187.28;5054085;28;20337;-49
2022/01/11 02:53:40;;;;;;;8.23;6.20;;;;;;;0.55;100.00;98194.44;5052977;28;20915;-47
2022/01/11 02:56:09;;;;;;;12.10;8.88;;;;;;;0.59;100.00;98192.50;5045154;28;20833;-48
2022/01/11 02:58:37;;;;;;;8.47;7.03;;;;;;;0.59;100.00;98198.53;5053905;28;20640;-50
2022/01/11 03:01:06;;;;;;;8.17;7.03;;;;;;;0.54;100.00;98193.59;5052940;28;20206;-51
2022/01/11 03:03:34;;;;;;;7.63;6.40;;;;;;;0.30;100.00;98190.75;5052483;28;20210;-48
2022/01/11 03:06:05;;;;;;;7.93;6.57;;;;;;;0.21;100.00;98202.59;5051481;28;20236;-52
2022/01/11 03:08:34;;;;;;;9.60;6.93;;;;;;;0.43;100.00;98196.88;5052033;28;20204;-49
2022/01/11 03:11:05;;;;;;;13.03;7.97;;;;;;;0.50;100.00;98202.53;5053487;28;20233;-48
2022/01/11 03:13:35;;;;;;;8.40;6.63;;;;;;;0.57;100.00;98196.03;5054725;28;20205;-51
2022/01/11 03:16:03;;;;;;;7.23;6.53;;;;;;;0.38;100.00;98201.56;5053663;28;20294;-52
2022/01/11 03:18:31;;;;;;;7.50;6.53;;;;;;;0.53;100.00;98197.13;5058096;28;20421;-49
2022/01/11 03:20:59;;;;;;;10.18;7.28;;;;;;;0.49;100.00;98202.66;5051884;28;20460;-50
2022/01/11 03:23:28;;;;;;;10.15;7.53;;;;;;;0.51;100.00;98206.81;5052967;28;20824;-53
2022/01/11 03:25:56;;;;;;;13.50;9.15;;;;;;;0.53;100.00;98201.53;5054249;28;20450;-56
2022/01/11 03:28:25;;;;;;;11.27;9.32;;;;;;;0.74;100.00;98211.53;5056655;28;20446;-54
2022/01/11 03:30:54;;;;;;;11.50;7.23;;;;;;;0.71;100.00;98217.81;5057855;28;20357;-57
2022/01/11 03:33:22;;;;;;;9.17;7.57;;;;;;;0.67;100.00;98213.72;5054444;28;20207;-57
2022/01/11 03:35:51;;;;;;;12.45;9.25;;;;;;;0.64;100.00;98214.72;5057818;28;20659;-53
2022/01/11 03:38:19;;;;;;;11.52;9.63;;;;;;;0.42;100.00;98217.84;5054036;28;20469;-56
2022/01/11 03:40:47;;;;;;;12.38;9.95;;;;;;;0.60;100.00;98217.66;5052991;28;20447;-53
2022/01/11 03:43:16;;;;;;;10.90;8.10;;;;;;;0.41;100.00;98216.16;5057142;28;20239;-54
2022/01/11 03:45:45;;;;;;;10.90;8.90;;;;;;;0.55;100.00;98212.69;5055156;28;20470;-52
2022/01/11 03:48:15;;;;;;;10.93;9.15;;;;;;;0.70;100.00;98222.16;5050140;28;20606;-50
2022/01/11 03:50:49;;;;;;;10.33;7.93;;;;;;;0.48;100.00;98214.84;5054140;28;20228;-49
2022/01/11 03:53:18;;;;;;;8.63;7.73;;;;;;;0.54;100.00;98213.63;5050420;28;20207;-48
2022/01/11 03:58:29;;;;;;;7.83;6.67;;;;;;;0.77;100.00;98221.81;5048686;28;20209;-48
2022/01/11 04:00:59;;;;;;;11.65;9.32;;;;;;;0.68;100.00;98221.44;5054244;28;20835;-45
2022/01/11 04:03:27;;;;;;;8.37;7.43;;;;;;;0.55;100.00;98223.13;5053848;28;20283;-49
2022/01/11 04:05:55;;;;;;;11.57;6.83;;;;;;;0.52;100.00;98218.94;5051815;28;20226;-48
2022/01/11 04:08:24;;;;;;;9.73;6.93;;;;;;;0.68;100.00;98224.03;5055964;28;20573;-48
2022/01/11 04:10:52;;;;;;;11.40;7.40;;;;;;;0.68;100.00;98221.44;5053961;28;20231;-47
2022/01/11 04:13:20;;;;;;;8.57;7.37;;;;;;;0.47;100.00;98218.38;5053265;28;20234;-46
2022/01/11 04:15:48;;;;;;;13.50;10.00;;;;;;;0.56;100.00;98223.03;5056927;28;20539;-46
2022/01/11 04:18:18;;;;;;;9.37;8.37;;;;;;;0.53;100.00;98219.78;5055484;28;20210;-50
2022/01/11 04:20:46;;;;;;;8.87;7.97;;;;;;;0.41;100.00;98222.22;5054049;28;20651;-48
2022/01/11 04:23:14;;;;;;;8.63;7.73;;;;;;;0.49;100.00;98219.13;5053685;28;20210;-48
2022/01/11 04:25:42;;;;;;;8.20;7.33;;;;;;;0.43;100.00;98222.97;5051410;28;20705;-47
2022/01/11 04:28:10;;;;;;;9.43;7.63;;;;;;;0.45;100.00;98228.06;5056022;28;20216;-47
2022/01/11 04:30:38;;;;;;;9.10;7.30;;;;;;;0.50;100.00;98219.97;5054162;28;20688;-50
2022/01/11 04:33:06;;;;;;;9.30;7.13;;;;;;;0.40;100.00;98227.53;5053940;28;20207;-49
2022/01/11 04:35:35;;;;;;;10.17;9.07;;;;;;;0.18;100.00;98230.59;5054260;28;20223;-47
2022/01/11 04:38:03;;;;;;;19.13;12.60;;;;;;;0.21;100.00;98231.25;5050570;28;20450;-49
2022/01/11 04:40:31;;;;;;;12.57;9.10;;;;;;;0.31;100.00;98228.91;5047666;28;20651;-47
2022/01/11 04:42:59;;;;;;;12.80;9.17;;;;;;;0.51;100.00;98232.91;5048499;28;20207;-52
2022/01/11 04:45:27;;;;;;;15.23;11.02;;;;;;;0.59;100.00;98226.41;5050015;28;20966;-47
2022/01/11 04:47:56;;;;;;;13.27;8.97;;;;;;;0.35;100.00;98229.56;5052030;28;20210;-49
2022/01/11 04:50:26;;;;;;;12.27;8.60;;;;;;;0.33;100.00;98229.66;5051472;28;20210;-49
2022/01/11 04:52:55;;;;;;;9.77;7.97;;;;;;;0.31;100.00;98230.69;5052252;28;20216;-48
2022/01/11 04:55:23;;;;;;;11.03;8.33;;;;;;;0.30;100.00;98227.25;5054413;28;20231;-46
2022/01/11 04:57:51;;;;;;;10.67;8.97;;;;;;;0.36;100.00;98233.84;5049660;28;20207;-47
2022/01/11 05:00:21;;;;;;;10.43;7.80;;;;;;;0.27;100.00;98224.81;5048151;28;20481;-49
2022/01/11 05:02:49;;;;;;;8.73;7.10;;;;;;;0.36;100.00;98229.47;5048655;28;20592;-51
2022/01/11 05:05:17;;;;;;;12.27;8.20;;;;;;;0.40;100.00;98233.59;5047185;28;20251;-47
2022/01/11 05:07:46;;;;;;;12.10;8.80;;;;;;;0.42;100.00;98241.31;5054726;28;20204;-47
2022/01/11 05:10:16;;;;;;;10.83;8.00;;;;;;;0.34;100.00;98244.38;5050504;28;20692;-44
2022/01/11 05:12:44;;;;;;;11.07;7.77;;;;;;;0.19;100.00;98247.91;5051563;28;20239;-45
2022/01/11 05:15:13;;;;;;;13.50;9.83;;;;;;;0.04;100.00;98247.91;5052361;28;20227;-45
2022/01/11 05:17:42;;;;;;;15.63;11.60;;;;;;;0.14;100.00;98245.56;5049828;28;20211;-45
2022/01/11 05:20:11;;;;;;;13.80;9.00;;;;;;;0.27;100.00;98256.09;5055449;28;20213;-48
2022/01/11 05:22:39;;;;;;;10.87;8.93;;;;;;;0.15;100.00;98257.66;5052955;28;20248;-48
2022/01/11 05:25:11;;;;;;;10.83;7.97;;;;;;;0.25;100.00;98264.03;5056880;28;20231;-47
2022/01/11 05:27:41;;;;;;;9.43;7.33;;;;;;;0.28;100.00;98256.03;5053783;28;20208;-48
2022/01/11 05:30:10;;;;;;;10.93;8.37;;;;;;;0.37;100.00;98259.00;5052525;28;20449;-46
2022/01/11 05:32:39;;;;;;;11.77;8.00;;;;;;;0.26;100.00;98260.50;5053648;28;20266;-46
2022/01/11 05:35:08;;;;;;;13.17;7.87;;;;;;;0.28;100.00;98260.38;5054266;28;20235;-49
2022/01/11 05:37:36;;;;;;;8.83;7.13;;;;;;;-0.06;100.00;98262.38;5051954;28;20200;-47
2022/01/11 05:40:05;;;;;;;10.43;7.50;;;;;;;-0.06;100.00;98265.00;5053138;28;21590;-45
2022/01/11 05:42:33;;;;;;;9.87;6.50;;;;;;;0.04;100.00;98265.28;5053545;28;20248;-47
2022/01/11 05:45:04;;;;;;;10.97;7.13;;;;;;;0.03;100.00;98267.09;5053518;28;20241;-47
2022/01/11 05:47:32;;;;;;;12.43;8.00;;;;;;;-0.08;100.00;98267.72;5052851;28;20207;-49
2022/01/11 05:50:03;;;;;;;10.63;7.40;;;;;;;-0.06;100.00;98271.06;5054212;28;20762;-47
2022/01/11 05:52:31;;;;;;;12.30;7.83;;;;;;;0.18;100.00;98274.91;5053440;28;20250;-47
2022/01/11 05:54:59;;;;;;;11.37;7.53;;;;;;;0.21;100.00;98272.97;5056189;28;20229;-53
2022/01/11 05:57:27;;;;;;;10.17;7.63;;;;;;;0.26;100.00;98281.34;5054409;28;20207;-46
2022/01/11 05:59:55;;;;;;;10.53;9.33;;;;;;;0.23;100.00;98289.34;5055782;28;20322;-48
2022/01/11 06:02:25;;;;;;;9.00;7.07;;;;;;;0.24;100.00;98288.44;5059081;28;20207;-44
2022/01/11 06:04:53;;;;;;;11.73;9.32;;;;;;;0.35;100.00;98294.75;5060225;28;21263;-46
2022/01/11 06:07:21;;;;;;;9.70;7.80;;;;;;;0.23;100.00;98298.94;5055547;28;20210;-51
2022/01/11 06:09:49;;;;;;;10.53;6.83;;;;;;;0.11;100.00;98290.06;5055510;28;20195;-49
2022/01/11 06:12:17;;;;;;;8.03;6.37;;;;;;;0.20;100.00;98306.94;5055462;28;20223;-49
2022/01/11 06:14:45;;;;;;;10.17;8.03;;;;;;;0.16;100.00;98311.47;5052190;28;20223;-47
2022/01/11 06:17:13;;;;;;;10.03;7.40;;;;;;;0.21;100.00;98316.44;5055851;28;20239;-47
2022/01/11 06:19:42;;;;;;;10.43;8.07;;;;;;;0.26;100.00;98317.84;5055292;28;20840;-50
2022/01/11 06:22:10;;;;;;;8.03;7.17;;;;;;;0.37;100.00;98318.97;5051891;28;20481;-54
2022/01/11 06:28:38;;;;;;;9.67;7.93;;;;;;;0.27;100.00;98331.69;5049800;28;20244;-52
2022/01/11 06:31:07;;;;;;;10.07;7.10;;;;;;;0.22;100.00;98333.75;5058719;28;20348;-51
2022/01/11 06:33:35;;;;;;;12.70;8.13;;;;;;;0.19;100.00;98329.56;5031198;28;20297;-55
2022/01/11 06:36:09;;;;;;;15.82;11.07;;;;;;;0.39;100.00;98333.59;5047401;28;20805;-49
2022/01/11 06:38:38;;;;;;;10.67;8.93;;;;;;;0.42;100.00;98336.03;5047182;28;20280;-50
2022/01/11 06:41:06;;;;;;;10.83;8.50;;;;;;;0.33;100.00;98340.94;5047214;28;20272;-49
2022/01/11 06:43:35;;;;;;;9.97;7.83;;;;;;;0.35;100.00;98347.72;5046643;28;20289;-51
2022/01/11 06:46:04;;;;;;;12.57;8.20;;;;;;;0.06;100.00;98345.09;5048585;28;20239;-50
2022/01/11 06:48:33;;;;;;;11.27;9.00;;;;;;;0.08;100.00;98348.44;5044510;28;20199;-50
2022/01/11 06:51:01;;;;;;;11.43;8.40;;;;;;;0.22;100.00;98352.00;5050632;28;20303;-52
2022/01/11 06:53:32;;;;;;;12.37;8.73;;;;;;;0.24;100.00;98357.94;5047267;28;20216;-52
2022/01/11 06:56:00;;;;;;;11.60;7.83;;;;;;;0.07;100.00;98362.38;5049059;28;20277;-55
2022/01/11 06:58:28;;;;;;;9.60;7.40;;;;;;;0.20;100.00;98352.09;5046386;28;20619;-53
2022/01/11 07:00:57;;;;;;;11.93;7.40;;;;;;;0.30;100.00;98364.59;5051380;28;20195;-52
2022/01/11 07:03:26;;;;;;;10.67;8.17;;;;;;;0.22;100.00;98365.03;5043875;28;20271;-51
2022/01/11 07:05:55;;;;;;;10.30;7.93;;;;;;;0.16;100.00;98371.41;5050515;28;20255;-47
2022/01/11 07:08:24;;;;;;;12.07;8.70;;;;;;;0.32;100.00;98370.53;5046178;28;20227;-48
2022/01/11 07:10:54;;;;;;;10.87;8.40;;;;;;;0.15;100.00;98372.34;5052399;28;20253;-47
2022/01/11 07:13:22;;;;;;;11.97;9.27;;;;;;;0.22;100.00;98378.06;5043499;28;20225;-54
2022/01/11 07:15:50;;;;;;;9.77;6.90;;;;;;;0.31;100.00;98382.72;5045635;28;20289;-49
2022/01/11 07:18:18;;;;;;;8.70;7.80;;;;;;;0.31;100.00;98377.50;5045249;28;20578;-54
2022/01/11 07:20:46;;;;;;;10.73;7.80;;;;;;;0.32;100.00;98381.81;5045104;28;20231;-50
2022/01/11 07:23:15;;;;;;;7.80;6.53;;;;;;;0.28;100.00;98383.78;5045094;28;20199;-48
2022/01/11 07:25:43;;;;;;;8.67;6.83;;;;;;;0.30;100.00;98394.09;5044685;28;20247;-55
2022/01/11 07:28:15;;;;;;;12.67;7.67;;;;;;;0.22;100.00;98394.56;5044866;28;20290;-52
2022/01/11 07:30:44;;;;;;;8.27;7.30;;;;;;;0.24;100.00;98390.09;5044523;28;20246;-49
2022/01/11 07:33:12;;;;;;;8.03;7.23;;;;;;;0.19;100.00;98394.72;5043834;28;20293;-52
2022/01/11 07:35:40;;;;;;;8.07;7.03;;;;;;;0.37;100.00;98400.63;5046782;28;20307;-50
2022/01/11 07:38:08;;;;;;;7.13;6.40;;;;;;;0.41;100.00;98404.75;5048888;28;20947;-51
2022/01/11 07:40:36;;;;;;;9.40;7.77;;;;;;;0.52;100.00;98409.31;5049185;28;20239;-51
2022/01/11 07:43:04;;;;;;;9.80;7.40;;;;;;;0.56;100.00;98410.81;5049543;28;20226;-50
2022/01/11 07:45:34;;;;;;;9.07;7.03;;;;;;;0.55;100.00;98406.53;5046715;28;20284;-46
2022/01/11 07:48:03;;;;;;;10.47;7.30;;;;;;;0.68;100.00;98417.06;5045203;28;20607;-55
2022/01/11 07:50:31;;;;;;;8.63;6.57;;;;;;;0.60;100.00;98416.69;5045643;28;20265;-50
2022/01/11 07:53:00;;;;;;;8.27;6.63;;;;;;;0.59;100.00;98422.03;5046868;28;21049;-47
2022/01/11 07:55:28;;;;;;;8.87;7.50;;;;;;;0.38;100.00;98415.38;5043492;28;20251;-49
2022/01/11 07:57:57;;;;;;;9.70;6.40;;;;;;;0.20;100.00;98425.09;5046395;28;20216;-54
2022/01/11 08:00:25;;;;;;;7.67;6.90;;;;;;;0.36;100.00;98426.78;5044940;28;20307;-50
2022/01/11 08:02:55;;;;;;;8.47;7.57;;;;;;;0.58;100.00;98431.59;5043321;28;20199;-51
2022/01/11 08:05:23;;;;;;;8.10;7.20;;;;;;;0.66;100.00;98425.94;5047329;28;20227;-55
2022/01/11 08:07:51;;;;;;;8.00;6.93;;;;;;;0.74;100.00;98433.28;5044815;28;20644;-53
2022/01/11 08:10:20;;;;;;;8.80;6.70;;;;;;;0.89;100.00;98434.16;5048067;28;20195;-52
2022/01/11 08:12:51;;;;;;;9.03;7.80;;;;;;;0.79;100.00;98429.50;5043616;28;20206;-52
2022/01/11 08:15:19;;;;;;;8.07;7.23;;;;;;;0.98;100.00;98436.22;5046080;28;20247;-52
2022/01/11 08:17:48;;;;;;;9.33;7.57;;;;;;;0.95;100.00;98434.63;5043241;28;20258;-50
2022/01/11 08:20:17;;;;;;;7.50;6.80;;;;;;;0.69;100.00;98436.19;5043511;28;20254;-54
2022/01/11 08:22:48;;;;;;;6.60;6.10;;;;;;;0.92;100.00;98447.88;5042477;28;20246;-49
2022/01/11 08:25:16;;;;;;;6.43;5.97;;;;;;;1.35;100.00;98440.97;5045713;28;20731;-54
2022/01/11 08:27:44;;;;;;;6.77;6.17;;;;;;;1.62;100.00;98441.03;5044984;28;20196;-56
2022/01/11 08:30:13;;;;;;;6.63;6.03;;;;;;;1.43;100.00;98431.72;5043789;28;20238;-54
2022/01/11 08:32:41;;;;;;;7.47;6.77;;;;;;;1.31;100.00;98440.31;5042689;28;20327;-55
2022/01/11 08:35:10;;;;;;;6.40;5.83;;;;;;;1.51;100.00;98439.06;5047807;28;20231;-52
2022/01/11 08:37:40;;;;;;;5.87;5.37;;;;;;;1.62;100.00;98445.41;5045952;28;20216;-55
2022/01/11 08:40:10;;;;;;;5.70;5.20;;;;;;;1.54;100.00;98440.66;5042235;28;20246;-49
2022/01/11 08:42:38;;;;;;;6.83;5.03;;;;;;;1.83;100.00;98430.97;5047624;28;20202;-54
2022/01/11 08:45:08;;;;;;;6.33;5.73;;;;;;;1.69;100.00;98444.91;5045938;28;20301;-53
2022/01/11 08:47:36;;;;;;;5.87;5.37;;;;;;;1.79;100.00;98442.56;5042745;28;20609;-55
2022/01/11 08:50:07;;;;;;;7.37;6.67;;;;;;;1.98;100.00;98439.63;5048294;28;20227;-53
2022/01/11 08:52:35;;;;;;;7.03;5.77;;;;;;;1.95;100.00;98431.97;5047111;28;20196;-53
2022/01/11 08:55:07;;;;;;;6.60;5.87;;;;;;;1.85;100.00;98434.34;5042726;28;20267;-55
2022/01/11 08:57:35;;;;;;;6.33;5.73;;;;;;;1.92;100.00;98434.78;5043520;28;20235;-56
2022/01/11 09:00:06;;;;;;;6.13;5.43;;;;;;;1.97;100.00;98437.94;5043156;28;20739;-54
2022/01/11 09:02:35;;;;;;;5.73;5.23;;;;;;;1.97;100.00;98437.94;5046071;28;20292;-52
2022/01/11 09:05:04;;;;;;;6.40;5.80;;;;;;;1.89;100.00;98435.00;5042079;28;20314;-50
2022/01/11 09:07:32;;;;;;;7.23;6.63;;;;;;;1.78;100.00;98438.28;5042708;28;20936;-55
2022/01/11 09:10:00;;;;;;;5.53;4.90;;;;;;;1.79;100.00;98439.97;5043444;28;20231;-48
2022/01/11 09:12:30;;;;;;;6.10;5.50;;;;;;;1.58;100.00;98436.94;5042844;28;20254;-48
2022/01/11 09:14:58;;;;;;;5.47;4.97;;;;;;;1.53;100.00;98439.84;5042152;28;20778;-52
2022/01/11 09:17:26;;;;;;;6.70;4.93;;;;;;;1.95;100.00;98439.81;5042356;28;20204;-53
2022/01/11 09:19:54;;;;;;;7.07;5.07;;;;;;;2.03;100.00;98436.72;5042281;28;20330;-53
2022/01/11 09:22:23;;;;;;;6.80;6.20;;;;;;;2.19;100.00;98449.66;5041354;28;20863;-50
2022/01/11 09:24:52;;;;;;;5.33;4.93;;;;;;;2.02;100.00;98443.72;5047699;28;20233;-54
2022/01/11 09:27:20;;;;;;;5.90;5.30;;;;;;;2.33;100.00;98451.38;5045941;28;20657;-53
2022/01/11 09:29:50;;;;;;;5.73;5.13;;;;;;;3.13;100.00;98453.00;5043401;28;20925;-53
2022/01/11 09:32:18;;;;;;;4.73;4.33;;;;;;;3.24;100.00;98454.91;5046024;28;20280;-48
2022/01/11 09:34:46;;;;;;;5.23;4.83;;;;;;;3.65;100.00;98444.25;5040953;28;20258;-52
2022/01/11 09:37:14;;;;;;;5.10;4.70;;;;;;;3.52;100.00;98452.13;5045685;28;20277;-53
2022/01/11 09:39:43;;;;;;;5.43;5.00;;;;;;;2.90;100.00;98454.59;5042978;28;20707;-53
2022/01/11 09:42:11;;;;;;;4.70;4.30;;;;;;;2.67;100.00;98464.84;5043132;28;20798;-52
2022/01/11 09:44:40;;;;;;;5.13;4.57;;;;;;;2.88;100.00;98457.31;5045977;28;20215;-54
2022/01/11 09:47:12;;;;;;;4.90;4.60;;;;;;;2.06;100.00;98459.19;5045533;28;20208;-50
2022/01/11 09:49:40;;;;;;;4.53;4.10;;;;;;;2.32;100.00;98457.53;5041987;28;20261;-55
2022/01/11 09:52:09;;;;;;;5.30;4.90;;;;;;;2.30;100.00;98460.25;5041003;28;20478;-50
2022/01/11 09:54:38;;;;;;;5.80;5.40;;;;;;;2.69;100.00;98455.09;5044463;28;20521;-52
2022/01/11 09:57:09;;;;;;;5.50;5.00;;;;;;;2.41;100.00;98454.31;5041798;28;20439;-51
2022/01/11 09:59:38;;;;;;;4.30;3.90;;;;;;;2.45;100.00;98461.00;5041383;28;20191;-53
2022/01/11 10:02:06;;;;;;;3.63;3.40;;;;;;;2.38;100.00;98459.75;5043822;28;20249;-56
2022/01/11 10:04:37;;;;;;;4.10;3.70;;;;;;;2.38;100.00;98462.34;5048616;28;20254;-54
2022/01/11 10:07:07;;;;;;;3.50;3.20;;;;;;;2.31;100.00;98456.69;5044849;28;20250;-55
2022/01/11 10:09:43;;;;;;;4.43;4.03;;;;;;;2.86;100.00;98455.72;5042093;28;20448;-50
2022/01/11 10:12:13;;;;;;;3.93;3.60;;;;;;;2.64;100.00;98459.78;5048865;28;20203;-54
2022/01/11 10:14:47;;;;;;;5.50;4.30;;;;;;;2.48;100.00;98464.38;5042593;28;20230;-48
2022/01/11 10:17:18;;;;;;;4.07;3.83;;;;;;;2.55;100.00;98457.78;5044045;28;20230;-51
2022/01/11 10:19:49;;;;;;;4.40;3.97;;;;;;;2.71;100.00;98466.31;5042675;28;20248;-51
2022/01/11 10:22:20;;;;;;;5.30;4.80;;;;;;;2.63;100.00;98462.50;5046041;28;20300;-51
2022/01/11 10:24:50;;;;;;;4.80;4.43;;;;;;;2.51;100.00;98464.16;5042626;28;20303;-51
2022/01/11 10:27:21;;;;;;;4.77;4.37;;;;;;;2.69;100.00;98462.97;5049415;28;20207;-50
2022/01/11 10:29:52;;;;;;;5.43;5.03;;;;;;;2.37;100.00;98465.91;5045906;28;20223;-51
2022/01/11 10:32:23;;;;;;;4.77;4.40;;;;;;;1.98;100.00;98462.31;5045356;28;20223;-56
2022/01/11 10:34:55;;;;;;;4.57;4.20;;;;;;;2.53;100.00;98470.97;5053157;28;20223;-52
2022/01/11 10:37:36;;;;;;;4.60;4.30;;;;;;;2.20;100.00;98460.94;5050444;28;20196;-53
2022/01/11 10:40:11;;;;;;;4.93;4.53;;;;;;;2.11;100.00;98467.63;5050505;28;20292;-55
2022/01/11 10:42:45;;;;;;;4.27;3.87;;;;;;;1.87;100.00;98476.06;5047462;28;20239;-47
2022/01/11 10:45:14;;;;;;;5.30;4.90;;;;;;;2.09;100.00;98470.31;5047332;28;20219;-53
2022/01/11 10:47:44;;;;;;;4.77;4.37;;;;;;;1.94;100.00;98479.97;5045106;28;20204;-52
2022/01/11 10:50:17;;;;;;;4.97;4.57;;;;;;;1.97;100.00;98485.00;5046545;28;20763;-54
2022/01/11 10:52:46;;;;;;;6.03;5.30;;;;;;;1.92;100.00;98475.78;5053354;28;20204;-56
2022/01/11 10:55:17;;;;;;;5.83;4.77;;;;;;;2.02;100.00;98467.25;5049718;28;20281;-50
2022/01/11 10:57:50;;;;;;;5.80;4.97;;;;;;;1.98;100.00;98478.00;5047484;28;20286;-56
2022/01/11 11:00:27;;;;;;;5.60;5.10;;;;;;;1.91;100.00;98482.78;5055149;28;20230;-53
2022/01/11 11:03:01;;;;;;;4.93;4.53;;;;;;;1.75;100.00;98479.47;5045634;28;20674;-52
2022/01/11 11:05:34;;;;;;;5.50;5.00;;;;;;;1.47;100.00;98479.38;5047589;28;20220;-53
2022/01/11 11:08:06;;;;;;;5.00;4.20;;;;;;;1.58;100.00;98476.97;5046161;28;20207;-48
2022/01/11 11:10:38;;;;;;;7.50;5.70;;;;;;;1.67;100.00;98490.38;5044759;28;20705;-51
2022/01/11 11:13:07;;;;;;;6.17;5.60;;;;;;;1.64;100.00;98488.78;5045835;28;20692;-55
2022/01/11 11:15:36;;;;;;;5.30;4.67;;;;;;;1.67;100.00;98490.38;5047202;28;20231;-50
2022/01/11 11:18:26;;;;;;;5.30;4.80;;;;;;;0.88;100.00;98488.13;5048229;28;20321;-54
2022/01/11 11:20:56;;;;;;;4.63;4.23;;;;;;;0.53;100.00;98491.84;5050345;28;20294;-54
2022/01/11 11:23:24;;;;;;;5.83;4.60;;;;;;;0.62;100.00;98481.84;5048111;28;20292;-50
2022/01/11 11:25:57;;;;;;;6.10;5.60;;;;;;;0.80;100.00;98485.97;5045174;28;20273;-54
2022/01/11 11:28:25;;;;;;;5.60;5.10;;;;;;;1.06;100.00;98483.59;5052478;28;20665;-52
2022/01/11 11:30:54;;;;;;;5.37;4.87;;;;;;;1.15;100.00;98482.22;5044996;28;20681;-52
2022/01/11 11:33:22;;;;;;;5.00;4.60;;;;;;;1.39;100.00;98477.25;5046076;28;20250;-53
2022/01/11 11:35:51;;;;;;;5.20;4.80;;;;;;;1.36;100.00;98474.84;5050486;28;20301;-47
2022/01/11 11:38:22;;;;;;;5.30;4.90;;;;;;;1.44;100.00;98477.81;5039078;28;20945;-52
2022/01/11 11:40:51;;;;;;;4.77;4.37;;;;;;;1.70;100.00;98477.13;5050174;28;20297;-53
2022/01/11 11:43:21;;;;;;;4.73;4.30;;;;;;;2.10;100.00;98474.59;5046993;28;20613;-51
2022/01/11 11:45:50;;;;;;;4.87;4.47;;;;;;;2.63;100.00;98475.59;5044572;28;20644;-48